createdAt,value
2022-10-03T00:01:37.903Z,9.30
2022-10-03T00:04:47.102Z,9.30
2022-10-03T00:07:58.185Z,9.30
2022-10-03T00:11:03.189Z,9.30
2022-10-03T00:14:25.182Z,9.30
2022-10-03T00:17:26.910Z,9.30
2022-10-03T00:20:34.758Z,9.30
2022-10-03T00:23:36.553Z,9.20
2022-10-03T00:26:45.759Z,9.20
2022-10-03T00:29:53.692Z,9.10
2022-10-03T00:32:55.731Z,9.10
2022-10-03T00:35:57.551Z,9.00
2022-10-03T00:39:12.048Z,9.00
2022-10-03T00:42:14.991Z,9.00
2022-10-03T00:45:29.916Z,8.90
2022-10-03T00:48:31.713Z,8.90
2022-10-03T00:51:33.484Z,9.00
2022-10-03T00:54:35.228Z,9.00
2022-10-03T00:57:55.379Z,9.00
2022-10-03T01:01:05.312Z,9.00
2022-10-03T01:04:21.748Z,9.00
2022-10-03T01:07:33.283Z,9.10
2022-10-03T01:10:39.815Z,9.10
2022-10-03T01:14:00.764Z,9.10
2022-10-03T01:17:02.591Z,9.00
2022-10-03T01:20:23.232Z,9.00
2022-10-03T01:23:25.029Z,9.00
2022-10-03T01:26:32.040Z,9.10
2022-10-03T01:30:12.235Z,9.20
2022-10-03T01:33:16.112Z,9.30
2022-10-03T01:36:24.632Z,9.20
2022-10-03T01:39:35.399Z,9.10
2022-10-03T01:42:58.986Z,9.00
2022-10-03T01:46:06.105Z,9.00
2022-10-03T01:49:17.081Z,9.00
2022-10-03T01:52:25.666Z,9.00
2022-10-03T01:55:35.927Z,9.00
2022-10-03T01:58:40.697Z,8.90
2022-10-03T02:01:51.298Z,9.00
2022-10-03T02:04:57.202Z,9.00
2022-10-03T02:08:05.861Z,9.00
2022-10-03T02:11:08.510Z,9.00
2022-10-03T02:14:24.725Z,9.20
2022-10-03T02:17:28.444Z,9.10
2022-10-03T02:20:33.000Z,9.00
2022-10-03T02:23:35.139Z,9.10
2022-10-03T02:26:36.909Z,9.00
2022-10-03T02:29:47.602Z,9.00
2022-10-03T02:33:01.455Z,9.10
2022-10-03T02:36:12.117Z,9.00
2022-10-03T02:39:32.468Z,9.00
2022-10-03T02:42:52.312Z,9.00
2022-10-03T02:45:54.178Z,9.00
2022-10-03T02:48:59.559Z,9.00
2022-10-03T02:52:08.079Z,9.00
2022-10-03T02:55:24.686Z,9.00
2022-10-03T02:58:43.768Z,8.90
2022-10-03T03:01:50.081Z,8.90
2022-10-03T03:05:07.219Z,8.90
2022-10-03T03:08:27.276Z,8.90
2022-10-03T03:11:29.041Z,8.90
2022-10-03T03:14:49.501Z,8.90
2022-10-03T03:17:57.007Z,8.90
2022-10-03T03:21:17.276Z,8.90
2022-10-03T03:24:24.768Z,8.90
2022-10-03T03:27:45.139Z,8.80
2022-10-03T03:30:56.719Z,8.90
2022-10-03T03:34:20.148Z,8.90
2022-10-03T03:37:43.905Z,8.90
2022-10-03T03:41:06.321Z,8.90
2022-10-03T03:44:12.433Z,8.90
2022-10-03T03:47:17.201Z,8.80
2022-10-03T03:50:37.713Z,8.80
2022-10-03T03:53:39.520Z,8.90
2022-10-03T03:56:41.286Z,8.90
2022-10-03T03:59:46.040Z,8.90
2022-10-03T04:02:53.621Z,8.90
2022-10-03T04:06:04.082Z,8.90
2022-10-03T04:09:24.617Z,8.90
2022-10-03T04:12:26.387Z,8.80
2022-10-03T04:15:36.486Z,8.70
2022-10-03T04:18:59.716Z,8.70
2022-10-03T04:22:01.525Z,8.70
2022-10-03T04:25:18.248Z,8.70
2022-10-03T04:28:33.155Z,8.90
2022-10-03T04:31:40.514Z,8.90
2022-10-03T04:34:51.080Z,8.90
2022-10-03T04:38:12.100Z,9.00
2022-10-03T04:41:16.783Z,9.00
2022-10-03T04:44:18.691Z,9.00
2022-10-03T04:47:27.636Z,9.10
2022-10-03T04:50:31.168Z,9.10
2022-10-03T04:53:54.855Z,9.10
2022-10-03T04:57:01.731Z,9.10
2022-10-03T05:00:03.719Z,9.10
2022-10-03T05:03:07.393Z,9.20
2022-10-03T05:06:18.507Z,9.20
2022-10-03T05:09:26.581Z,9.30
2022-10-03T05:12:32.425Z,9.30
2022-10-03T05:15:49.248Z,9.20
2022-10-03T05:18:56.863Z,9.30
2022-10-03T05:22:04.960Z,9.20
2022-10-03T05:25:26.068Z,9.10
2022-10-03T05:28:43.190Z,9.10
2022-10-03T05:32:04.113Z,9.10
2022-10-03T05:35:17.942Z,9.10
2022-10-03T05:38:19.826Z,9.10
2022-10-03T05:41:35.616Z,9.10
2022-10-03T05:44:41.982Z,9.10
2022-10-03T05:47:50.982Z,9.10
2022-10-03T05:50:57.839Z,9.10
2022-10-03T05:54:18.458Z,9.10
2022-10-03T05:57:27.003Z,9.10
2022-10-03T06:00:37.714Z,9.10
2022-10-03T06:03:54.805Z,9.10
2022-10-03T06:07:12.576Z,9.10
2022-10-03T06:10:17.894Z,9.20
2022-10-03T06:13:20.795Z,9.30
2022-10-03T06:16:23.051Z,9.40
2022-10-03T06:19:44.868Z,9.40
2022-10-03T06:23:06.265Z,9.40
2022-10-03T06:26:30.933Z,9.40
2022-10-03T06:29:49.691Z,9.30
2022-10-03T06:32:57.444Z,9.30
2022-10-03T06:36:05.065Z,9.30
2022-10-03T06:39:09.809Z,9.40
2022-10-03T06:42:30.442Z,9.50
2022-10-03T06:45:50.062Z,9.60
2022-10-03T06:49:01.307Z,9.70
2022-10-03T06:52:09.143Z,9.80
2022-10-03T06:55:19.133Z,9.90
2022-10-03T06:58:39.607Z,10.00
2022-10-03T07:01:49.761Z,10.00
2022-10-03T07:04:56.094Z,10.10
2022-10-03T07:08:16.460Z,10.20
2022-10-03T07:11:28.773Z,10.30
2022-10-03T07:14:36.988Z,10.40
2022-10-03T07:17:50.922Z,10.50
2022-10-03T07:20:59.845Z,10.60
2022-10-03T07:24:16.906Z,10.60
2022-10-03T07:27:33.659Z,10.70
2022-10-03T07:30:46.089Z,10.80
2022-10-03T07:33:50.861Z,10.90
2022-10-03T07:37:21.815Z,11.10
2022-10-03T07:40:23.589Z,11.30
2022-10-03T07:43:44.155Z,11.50
2022-10-03T07:47:04.726Z,11.50
2022-10-03T07:50:12.348Z,11.60
2022-10-03T07:53:34.798Z,11.70
2022-10-03T07:56:42.827Z,11.80
2022-10-03T08:00:03.680Z,11.90
2022-10-03T08:03:33.392Z,12.10
2022-10-03T08:06:39.225Z,12.20
2022-10-03T08:09:57.613Z,12.40
2022-10-03T08:13:12.813Z,12.40
2022-10-03T08:16:14.612Z,12.60
2022-10-03T08:19:19.945Z,12.70
2022-10-03T08:22:37.002Z,12.80
2022-10-03T08:25:38.755Z,13.00
2022-10-03T08:28:47.191Z,13.10
2022-10-03T08:32:07.862Z,13.30
2022-10-03T08:35:24.814Z,13.60
2022-10-03T08:38:33.758Z,13.80
2022-10-03T08:41:54.500Z,14.10
2022-10-03T08:44:56.313Z,14.30
2022-10-03T08:48:01.110Z,14.80
2022-10-03T08:51:11.413Z,15.10
2022-10-03T08:54:16.225Z,15.20
2022-10-03T08:57:21.599Z,15.30
2022-10-03T09:00:23.827Z,15.40
2022-10-03T09:03:44.017Z,15.40
2022-10-03T09:07:12.051Z,15.60
2022-10-03T09:10:10.665Z,15.90
2022-10-03T09:13:14.794Z,16.40
2022-10-03T09:16:41.391Z,16.50
2022-10-03T09:19:45.084Z,16.40
2022-10-03T09:22:49.864Z,16.30
2022-10-03T09:26:00.992Z,16.30
2022-10-03T09:29:17.985Z,16.60
2022-10-03T09:32:28.575Z,17.50
2022-10-03T09:35:39.660Z,18.30
2022-10-03T09:38:47.570Z,18.60
2022-10-03T09:41:49.295Z,18.60
2022-10-03T09:45:09.951Z,18.80
2022-10-03T09:48:24.146Z,18.90
2022-10-03T09:51:28.951Z,19.70
2022-10-03T09:54:35.423Z,20.20
2022-10-03T09:57:43.332Z,20.10
2022-10-03T10:01:02.629Z,20.00
2022-10-03T10:04:16.062Z,19.80
2022-10-03T10:07:30.362Z,19.80
2022-10-03T10:10:41.318Z,19.70
2022-10-03T10:14:06.323Z,19.40
2022-10-03T10:17:23.728Z,19.20
2022-10-03T10:20:44.456Z,19.20
2022-10-03T10:24:06.466Z,19.20
2022-10-03T10:27:14.116Z,20.20
2022-10-03T10:30:34.742Z,21.30
2022-10-03T10:33:48.496Z,21.70
2022-10-03T10:37:05.596Z,21.10
2022-10-03T10:40:26.303Z,20.70
2022-10-03T10:43:47.210Z,20.30
2022-10-03T10:47:01.455Z,20.60
2022-10-03T10:50:12.303Z,20.70
2022-10-03T10:53:37.595Z,20.90
2022-10-03T10:56:48.283Z,20.80
2022-10-03T11:00:09.163Z,20.60
2022-10-03T11:03:29.688Z,20.60
2022-10-03T11:06:31.469Z,20.40
2022-10-03T11:09:39.477Z,20.30
2022-10-03T11:13:00.896Z,20.10
2022-10-03T11:16:06.010Z,20.00
2022-10-03T11:19:27.024Z,20.10
2022-10-03T11:22:48.195Z,19.90
2022-10-03T11:26:05.014Z,19.80
2022-10-03T11:29:06.785Z,20.00
2022-10-03T11:32:27.407Z,20.00
2022-10-03T11:35:31.913Z,20.10
2022-10-03T11:38:40.073Z,20.60
2022-10-03T11:41:46.684Z,20.80
2022-10-03T11:45:01.128Z,21.30
2022-10-03T11:48:21.874Z,20.90
2022-10-03T11:51:23.617Z,20.40
2022-10-03T11:54:31.931Z,20.20
2022-10-03T11:57:35.027Z,20.20
2022-10-03T12:00:36.854Z,20.00
2022-10-03T12:03:43.406Z,19.70
2022-10-03T12:07:07.619Z,19.80
2022-10-03T12:10:09.399Z,19.80
2022-10-03T12:13:15.131Z,19.90
2022-10-03T12:16:24.078Z,19.70
2022-10-03T12:19:41.372Z,19.40
2022-10-03T12:22:53.073Z,19.10
2022-10-03T12:25:54.892Z,19.00
2022-10-03T12:28:56.697Z,19.10
2022-10-03T12:32:01.432Z,19.30
2022-10-03T12:35:14.960Z,19.40
2022-10-03T12:38:35.217Z,19.40
2022-10-03T12:41:55.310Z,19.50
2022-10-03T12:45:02.824Z,19.40
2022-10-03T12:48:23.217Z,19.30
2022-10-03T12:51:31.845Z,19.40
2022-10-03T12:54:45.127Z,19.40
2022-10-03T12:57:52.954Z,19.40
2022-10-03T13:00:55.913Z,19.30
2022-10-03T13:04:00.567Z,19.20
2022-10-03T13:07:05.905Z,19.10
2022-10-03T13:10:13.634Z,19.10
2022-10-03T13:13:34.213Z,19.20
2022-10-03T13:16:39.482Z,19.40
2022-10-03T13:19:51.400Z,19.60
2022-10-03T13:22:56.218Z,19.50
2022-10-03T13:26:18.580Z,19.80
2022-10-03T13:29:20.537Z,20.00
2022-10-03T13:32:30.864Z,20.10
2022-10-03T13:35:54.463Z,20.00
2022-10-03T13:39:09.884Z,20.10
2022-10-03T13:42:19.402Z,20.10
2022-10-03T13:45:23.565Z,20.00
2022-10-03T13:48:27.184Z,19.80
2022-10-03T13:51:35.060Z,19.30
2022-10-03T13:54:54.369Z,19.00
2022-10-03T13:58:05.652Z,19.00
2022-10-03T14:01:13.865Z,18.90
2022-10-03T14:04:42.509Z,18.80
2022-10-03T14:07:46.845Z,18.70
2022-10-03T14:10:48.992Z,18.40
2022-10-03T14:14:00.100Z,18.40
2022-10-03T14:17:01.905Z,18.50
2022-10-03T14:20:06.629Z,18.50
2022-10-03T14:23:08.458Z,18.40
2022-10-03T14:26:13.172Z,18.30
2022-10-03T14:29:26.763Z,18.20
2022-10-03T14:32:47.405Z,18.20
2022-10-03T14:35:53.043Z,18.20
2022-10-03T14:39:13.463Z,18.40
2022-10-03T14:42:30.586Z,18.30
2022-10-03T14:45:34.240Z,18.30
2022-10-03T14:48:45.890Z,18.40
2022-10-03T14:51:49.246Z,18.40
2022-10-03T14:54:51.213Z,18.30
2022-10-03T14:58:09.682Z,18.30
2022-10-03T15:01:19.457Z,18.40
2022-10-03T15:04:24.002Z,18.30
2022-10-03T15:07:35.813Z,18.30
2022-10-03T15:10:38.203Z,18.40
2022-10-03T15:13:44.299Z,18.20
2022-10-03T15:16:55.363Z,18.10
2022-10-03T15:19:57.976Z,18.00
2022-10-03T15:23:01.173Z,17.90
2022-10-03T15:26:04.164Z,17.90
2022-10-03T15:29:06.391Z,17.80
2022-10-03T15:32:10.324Z,17.70
2022-10-03T15:35:16.269Z,17.60
2022-10-03T15:38:20.181Z,17.70
2022-10-03T15:41:22.543Z,17.80
2022-10-03T15:44:33.746Z,17.80
2022-10-03T15:47:36.941Z,17.80
2022-10-03T15:50:41.081Z,17.90
2022-10-03T15:53:42.863Z,17.80
2022-10-03T15:56:46.118Z,17.70
2022-10-03T15:59:50.144Z,17.60
2022-10-03T16:02:54.837Z,17.60
2022-10-03T16:05:56.620Z,17.50
2022-10-03T16:09:02.616Z,17.40
2022-10-03T16:12:16.913Z,17.40
2022-10-03T16:15:22.727Z,17.50
2022-10-03T16:18:45.076Z,17.30
2022-10-03T16:21:57.023Z,17.40
2022-10-03T16:24:59.142Z,17.30
2022-10-03T16:28:07.969Z,17.20
2022-10-03T16:31:14.463Z,17.10
2022-10-03T16:34:16.600Z,16.70
2022-10-03T16:37:21.958Z,16.60
2022-10-03T16:40:24.652Z,16.60
2022-10-03T16:43:26.580Z,16.50
2022-10-03T16:46:29.528Z,16.40
2022-10-03T16:49:53.852Z,16.30
2022-10-03T16:52:56.511Z,16.10
2022-10-03T16:56:07.712Z,16.00
2022-10-03T16:59:13.681Z,15.90
2022-10-03T17:02:16.779Z,15.70
2022-10-03T17:05:18.740Z,15.60
2022-10-03T17:08:40.738Z,15.40
2022-10-03T17:11:43.115Z,15.20
2022-10-03T17:14:45.210Z,15.10
2022-10-03T17:17:53.688Z,15.10
2022-10-03T17:21:13.953Z,14.90
2022-10-03T17:24:16.909Z,14.80
2022-10-03T17:27:30.122Z,14.70
2022-10-03T17:30:51.396Z,14.60
2022-10-03T17:34:02.332Z,14.60
2022-10-03T17:37:07.256Z,14.50
2022-10-03T17:40:21.312Z,14.50
2022-10-03T17:43:29.069Z,14.40
2022-10-03T17:46:33.593Z,14.30
2022-10-03T17:49:50.594Z,14.20
2022-10-03T17:52:53.242Z,14.20
2022-10-03T17:56:13.408Z,14.10
2022-10-03T17:59:18.579Z,14.00
2022-10-03T18:02:21.814Z,13.90
2022-10-03T18:05:30.947Z,13.80
2022-10-03T18:08:34.898Z,13.80
2022-10-03T18:11:37.948Z,13.60
2022-10-03T18:14:42.977Z,13.50
2022-10-03T18:17:58.408Z,13.50
2022-10-03T18:21:01.861Z,13.40
2022-10-03T18:24:11.197Z,13.30
2022-10-03T18:27:46.391Z,13.20
2022-10-03T18:30:52.367Z,13.20
2022-10-03T18:34:00.856Z,13.10
2022-10-03T18:37:16.138Z,13.10
2022-10-03T18:40:24.828Z,13.00
2022-10-03T18:43:28.680Z,13.00
2022-10-03T18:46:39.310Z,12.90
2022-10-03T18:49:41.359Z,12.90
2022-10-03T18:52:43.947Z,12.90
2022-10-03T18:55:47.454Z,12.90
2022-10-03T18:58:55.508Z,13.00
2022-10-03T19:01:57.843Z,13.10
2022-10-03T19:05:03.027Z,13.20
2022-10-03T19:08:11.431Z,13.20
2022-10-03T19:11:19.164Z,13.30
2022-10-03T19:14:41.256Z,13.40
2022-10-03T19:17:54.991Z,13.40
2022-10-03T19:20:58.616Z,13.40
2022-10-03T19:24:05.684Z,13.40
2022-10-03T19:27:14.482Z,13.50
2022-10-03T19:30:20.362Z,13.50
2022-10-03T19:33:22.991Z,13.50
2022-10-03T19:36:26.603Z,13.40
2022-10-03T19:39:29.235Z,13.50
2022-10-03T19:42:34.139Z,13.50
2022-10-03T19:45:35.955Z,13.50
2022-10-03T19:48:40.140Z,13.50
2022-10-03T19:51:42.080Z,13.40
2022-10-03T19:54:51.836Z,13.40
2022-10-03T19:57:54.961Z,13.40
2022-10-03T20:00:57.464Z,13.40
2022-10-03T20:04:00.769Z,13.40
2022-10-03T20:07:03.174Z,13.40
2022-10-03T20:10:23.769Z,13.40
2022-10-03T20:13:25.568Z,13.50
2022-10-03T20:16:30.115Z,13.50
2022-10-03T20:19:41.684Z,13.50
2022-10-03T20:22:43.751Z,13.50
2022-10-03T20:25:49.216Z,13.50
2022-10-03T20:28:50.999Z,13.60
2022-10-03T20:31:57.942Z,13.50
2022-10-03T20:35:00.385Z,13.60
2022-10-03T20:38:13.509Z,13.60
2022-10-03T20:41:24.428Z,13.50
2022-10-03T20:44:45.112Z,13.50
2022-10-03T20:47:52.659Z,13.50
2022-10-03T20:50:57.451Z,13.40
2022-10-03T20:53:59.218Z,13.40
2022-10-03T20:57:02.216Z,13.40
2022-10-03T21:00:06.870Z,13.40
2022-10-03T21:03:13.836Z,13.40
2022-10-03T21:06:17.846Z,13.40
2022-10-03T21:09:20.160Z,13.40
2022-10-03T21:12:24.076Z,13.30
2022-10-03T21:15:39.910Z,13.20
2022-10-03T21:18:42.021Z,13.20
2022-10-03T21:22:03.128Z,13.20
2022-10-03T21:25:05.557Z,13.20
2022-10-03T21:28:13.507Z,13.20
2022-10-03T21:31:18.659Z,13.30
2022-10-03T21:34:20.501Z,13.20
2022-10-03T21:37:41.336Z,13.30
2022-10-03T21:40:52.476Z,13.30
2022-10-03T21:43:58.798Z,13.40
2022-10-03T21:47:05.958Z,13.40
2022-10-03T21:50:07.787Z,13.40
2022-10-03T21:53:09.662Z,13.40
2022-10-03T21:56:20.658Z,13.40
2022-10-03T21:59:31.673Z,13.50
2022-10-03T22:02:36.781Z,13.50
2022-10-03T22:05:41.620Z,13.40
2022-10-03T22:08:43.993Z,13.50
2022-10-03T22:11:50.450Z,13.40
2022-10-03T22:14:52.192Z,13.40
2022-10-03T22:18:01.697Z,13.40
2022-10-03T22:21:07.135Z,13.30
2022-10-03T22:24:08.873Z,13.30
2022-10-03T22:27:18.495Z,13.30
2022-10-03T22:30:20.779Z,13.30
2022-10-03T22:33:23.136Z,13.30
2022-10-03T22:36:25.028Z,13.30
2022-10-03T22:39:26.792Z,13.30
2022-10-03T22:42:28.786Z,13.30
2022-10-03T22:45:31.224Z,13.40
2022-10-03T22:48:34.457Z,13.40
2022-10-03T22:51:36.627Z,13.40
2022-10-03T22:54:39.295Z,13.50
2022-10-03T22:57:41.590Z,13.50
2022-10-03T23:00:43.347Z,13.50
2022-10-03T23:03:45.122Z,13.50
2022-10-03T23:07:00.622Z,13.50
2022-10-03T23:10:14.654Z,13.50
2022-10-03T23:13:16.411Z,13.50
2022-10-03T23:16:37.262Z,13.50
2022-10-03T23:19:51.126Z,13.50
2022-10-03T23:22:53.710Z,13.50
2022-10-03T23:26:13.885Z,13.60
2022-10-03T23:29:16.007Z,13.50
2022-10-03T23:32:20.751Z,13.50
2022-10-03T23:35:31.783Z,13.60
2022-10-03T23:38:33.640Z,13.60
2022-10-03T23:41:43.522Z,13.70
2022-10-03T23:44:55.296Z,13.70
2022-10-03T23:48:00.129Z,13.70
2022-10-03T23:51:03.840Z,13.70
2022-10-03T23:54:06.584Z,13.80
2022-10-03T23:57:08.412Z,13.80
